Terminal Aerodrome Forecast
Issued by NWS Jackson, MS

Home | Current Version | Previous Version | Text Only | Print | Product List | Glossary On
Versions: 1 2 3 4 5 6 7 8 9 10 11 12 13 14
556
FTUS44 KJAN 240520
TAFGWO
TAF
KGWO 240520Z 2406/2506 22004KT P6SM -RA OVC100
     FM240830 28003KT P6SM SCT020 BKN040 OVC060
     FM241000 27005KT P6SM -RA SCT015 BKN050 OVC080
     FM241500 30008KT P6SM SCT100
     FM241900 29010G18KT P6SM VCSH SCT050 BKN100
     FM242100 28012G20KT P6SM SCT250
     FM250000 27005KT P6SM SCT250=

USA.gov is the U.S. government's official web portal to all federal, state and local government web resources and services.